Time;durP1;ratioP1;P1;durP2;ratioP2;P2;SDS_P1;SDS_P2;PMS_P1;PMS_P2;Temp;Humidity;BMP_temperature;BMP_pressure;BME280_temperature;BME280_humidity;BME280_pressure;Samples;Min_cycle;Max_cycle;Signal;HPM_P1;HPM_P2
2024/01/26 00:01:53;;;;;;;17.55;4.07;;;;;;;8.54;58.26;100991.88;6216066;22;96798;-77
2024/01/26 00:04:19;;;;;;;19.23;4.15;;;;;;;8.57;58.12;101012.78;6215607;22;101629;-77
2024/01/26 00:06:44;;;;;;;17.58;4.18;;;;;;;8.43;57.92;100991.19;6241386;22;101693;-77
2024/01/26 00:09:11;;;;;;;15.68;4.95;;;;;;;8.61;57.86;101011.88;6242014;22;96730;-77
2024/01/26 00:11:37;;;;;;;19.88;3.65;;;;;;;8.40;58.17;100989.47;6190645;22;96843;-79
2024/01/26 00:14:03;;;;;;;17.13;4.03;;;;;;;8.39;57.96;100992.97;6189803;22;101233;-77
2024/01/26 00:16:28;;;;;;;22.55;3.92;;;;;;;8.33;58.27;100988.66;6241575;22;97442;-78
2024/01/26 00:18:54;;;;;;;16.02;4.65;;;;;;;8.41;58.26;101017.38;6215985;22;96698;-77
2024/01/26 00:21:19;;;;;;;15.60;3.95;;;;;;;8.39;58.25;101000.81;6215945;22;97145;-77
2024/01/26 00:23:45;;;;;;;16.15;4.03;;;;;;;8.55;58.03;101030.25;6189719;22;101086;-77
2024/01/26 00:26:13;;;;;;;23.35;4.80;;;;;;;8.53;58.11;101024.19;6215981;22;101227;-78
2024/01/26 00:28:39;;;;;;;19.45;4.53;;;;;;;8.42;58.30;101011.25;6215842;22;96769;-77
2024/01/26 00:31:05;;;;;;;17.38;4.03;;;;;;;8.55;57.75;101012.81;6243032;22;96796;-77
2024/01/26 00:33:30;;;;;;;21.33;4.85;;;;;;;8.65;57.49;101024.00;6240810;22;98042;-77
2024/01/26 00:35:56;;;;;;;16.38;4.72;;;;;;;8.64;57.66;101024.91;6216021;22;97261;-78
2024/01/26 00:38:21;;;;;;;12.65;4.20;;;;;;;8.57;58.01;101021.47;6189721;22;96660;-77
2024/01/26 00:40:47;;;;;;;18.50;4.13;;;;;;;8.61;58.03;101017.09;6242281;22;96862;-78
2024/01/26 00:43:12;;;;;;;22.63;4.25;;;;;;;8.56;57.76;101030.22;6241208;22;97573;-77
2024/01/26 00:45:39;;;;;;;20.17;5.40;;;;;;;8.52;57.55;101017.19;6216173;22;99492;-77
2024/01/26 00:48:04;;;;;;;17.65;4.70;;;;;;;8.58;57.39;101027.56;6243169;22;97085;-77
2024/01/26 00:50:30;;;;;;;15.20;4.30;;;;;;;8.66;58.11;101040.56;6216347;22;96810;-77
2024/01/26 00:52:55;;;;;;;18.55;4.85;;;;;;;8.68;58.82;101029.19;6241277;22;97410;-77
2024/01/26 00:55:22;;;;;;;21.77;5.10;;;;;;;8.52;60.03;101023.31;6242466;22;97424;-78
2024/01/26 00:57:48;;;;;;;16.23;4.28;;;;;;;8.59;59.87;101045.91;6215724;22;97117;-77
2024/01/26 01:00:14;;;;;;;16.55;4.05;;;;;;;8.58;59.93;101054.63;6190584;22;96817;-77
2024/01/26 01:02:40;;;;;;;11.88;3.78;;;;;;;8.59;60.46;101042.41;6240626;22;97477;-77
2024/01/26 01:05:06;;;;;;;20.45;4.80;;;;;;;8.57;60.81;101052.88;6215362;22;97370;-77
2024/01/26 01:07:32;;;;;;;20.30;6.25;;;;;;;8.47;60.55;101033.00;6215523;22;96637;-77
2024/01/26 01:09:58;;;;;;;19.80;4.82;;;;;;;8.54;60.92;101055.56;6216384;22;96680;-77
2024/01/26 01:12:23;;;;;;;25.23;4.93;;;;;;;8.34;60.97;101031.38;6215265;22;101250;-76
2024/01/26 01:14:49;;;;;;;16.75;4.05;;;;;;;8.46;61.33;101053.94;6243261;22;97497;-77
2024/01/26 01:17:14;;;;;;;16.45;4.18;;;;;;;8.41;61.04;101061.84;6241657;22;96647;-77
2024/01/26 01:19:40;;;;;;;19.13;4.28;;;;;;;8.29;61.34;101038.41;6216433;22;96882;-77
2024/01/26 01:22:05;;;;;;;20.48;4.95;;;;;;;8.32;61.71;101056.69;6215305;22;97534;-76
2024/01/26 01:24:31;;;;;;;23.80;5.03;;;;;;;8.33;61.98;101063.66;6241636;22;97221;-79
2024/01/26 01:26:57;;;;;;;20.13;4.50;;;;;;;8.32;61.96;101049.72;6189368;22;96678;-77
2024/01/26 01:29:22;;;;;;;15.18;4.50;;;;;;;8.32;62.35;101046.22;6243115;22;96739;-77
2024/01/26 01:31:48;;;;;;;15.43;4.03;;;;;;;8.36;62.34;101059.25;6214924;22;101525;-76
2024/01/26 01:34:13;;;;;;;18.88;4.32;;;;;;;8.21;62.79;101049.00;6241936;22;97190;-76
2024/01/26 01:36:39;;;;;;;18.98;4.82;;;;;;;8.31;62.30;101054.97;6242953;22;96709;-76
2024/01/26 01:39:04;;;;;;;14.60;4.13;;;;;;;8.37;62.09;101057.50;6242941;22;96908;-77
2024/01/26 01:41:30;;;;;;;16.40;3.60;;;;;;;8.40;62.59;101054.88;6216838;22;97438;-77
2024/01/26 01:43:58;;;;;;;16.70;4.18;;;;;;;8.15;62.10;101008.09;6217407;22;97220;-76
2024/01/26 01:46:24;;;;;;;19.55;4.40;;;;;;;8.43;62.23;101056.59;6216859;22;96722;-76
2024/01/26 01:48:50;;;;;;;21.80;4.63;;;;;;;8.26;62.82;101039.34;6242725;22;96838;-76
2024/01/26 01:51:15;;;;;;;19.25;4.43;;;;;;;8.34;62.51;101045.31;6242138;22;97581;-76
2024/01/26 01:53:41;;;;;;;18.67;4.10;;;;;;;8.12;62.55;101026.44;6216955;22;101037;-77
2024/01/26 01:56:11;;;;;;;18.67;4.35;;;;;;;8.29;62.43;101043.66;6217623;22;96666;-76
2024/01/26 01:58:39;;;;;;;19.60;3.92;;;;;;;8.24;62.33;101043.72;6190999;22;96806;-76
2024/01/26 02:01:05;;;;;;;17.85;4.40;;;;;;;8.18;62.32;101037.72;6242811;22;97412;-78
2024/01/26 02:03:30;;;;;;;16.70;3.88;;;;;;;8.22;62.24;101053.34;6215653;22;100911;-77
2024/01/26 02:05:56;;;;;;;20.52;4.53;;;;;;;8.11;62.58;101042.13;6217060;22;96630;-77
2024/01/26 02:08:22;;;;;;;13.40;3.70;;;;;;;8.12;62.51;101031.66;6201048;22;96876;-77
2024/01/26 02:10:47;;;;;;;16.73;4.20;;;;;;;8.24;61.97;101041.13;6211634;22;97310;-77
2024/01/26 02:13:13;;;;;;;17.70;4.28;;;;;;;8.17;61.96;101042.06;6185553;22;97413;-76
2024/01/26 02:15:38;;;;;;;16.20;4.63;;;;;;;8.22;62.20;101050.72;6211393;22;96684;-76
2024/01/26 02:18:04;;;;;;;21.92;4.47;;;;;;;8.08;62.30;101024.72;6211493;22;96834;-76
2024/01/26 02:20:29;;;;;;;14.05;4.20;;;;;;;8.28;61.71;101042.78;6185979;22;100826;-76
2024/01/26 02:22:55;;;;;;;15.52;4.30;;;;;;;8.16;62.17;101040.34;6211354;22;97266;-76
2024/01/26 02:25:20;;;;;;;17.52;4.97;;;;;;;8.19;62.67;101044.66;6213669;22;97053;-76
2024/01/26 02:27:46;;;;;;;20.13;4.10;;;;;;;8.20;62.22;101035.94;6185419;22;96741;-76
2024/01/26 02:30:12;;;;;;;16.25;3.92;;;;;;;8.02;62.15;101008.25;6186026;22;100910;-78
2024/01/26 02:32:37;;;;;;;19.27;4.93;;;;;;;8.23;62.24;101036.78;6186030;22;100837;-77
2024/01/26 02:35:03;;;;;;;18.45;3.80;;;;;;;8.05;61.93;101016.94;6186109;22;97163;-77
2024/01/26 02:37:29;;;;;;;19.42;4.85;;;;;;;8.17;61.48;101031.59;6212959;22;96674;-80
2024/01/26 02:39:55;;;;;;;20.42;5.18;;;;;;;8.06;61.50;101023.06;6185428;22;100984;-76
2024/01/26 02:42:21;;;;;;;15.82;4.60;;;;;;;8.18;61.75;101038.56;6185988;22;97252;-79
2024/01/26 02:44:46;;;;;;;18.52;4.13;;;;;;;8.08;61.54;101029.97;6210552;22;97236;-76
2024/01/26 02:47:12;;;;;;;17.67;4.38;;;;;;;8.19;61.52;101055.13;6185934;22;96881;-77
2024/01/26 02:49:41;;;;;;;16.92;4.15;;;;;;;8.16;61.39;101037.72;6185559;22;101076;-76
2024/01/26 02:52:06;;;;;;;17.95;4.35;;;;;;;8.05;61.82;101027.38;6211602;22;97414;-77
2024/01/26 02:54:32;;;;;;;22.27;5.18;;;;;;;8.01;61.50;101019.63;6213566;22;97067;-77
2024/01/26 02:56:58;;;;;;;14.07;3.92;;;;;;;8.06;61.56;101023.91;6212171;22;96764;-77
2024/01/26 02:59:25;;;;;;;19.25;5.78;;;;;;;8.31;61.34;101041.88;6209356;22;99365;-76
2024/01/26 03:01:50;;;;;;;12.65;4.57;;;;;;;8.23;61.35;101057.69;6211103;22;101696;-76
2024/01/26 03:04:18;;;;;;;15.75;4.15;;;;;;;8.15;61.25;101063.00;6210703;22;96642;-76
2024/01/26 03:06:45;;;;;;;18.35;3.92;;;;;;;8.12;61.68;101044.75;6213054;22;97189;-77
2024/01/26 03:09:10;;;;;;;16.25;4.30;;;;;;;8.10;61.52;101054.34;6247467;22;98472;-77
2024/01/26 03:11:37;;;;;;;15.45;3.40;;;;;;;8.05;61.35;101053.53;6221097;22;97683;-76
2024/01/26 03:14:04;;;;;;;17.95;4.13;;;;;;;8.08;61.50;101052.63;6221745;22;96763;-76
2024/01/26 03:16:30;;;;;;;19.98;6.50;;;;;;;8.07;61.79;101051.78;6247379;22;96738;-76
2024/01/26 03:18:55;;;;;;;17.20;4.35;;;;;;;7.97;61.62;101034.47;6221436;22;100720;-77
2024/01/26 03:21:21;;;;;;;30.67;5.18;;;;;;;7.94;61.32;101031.88;6247035;22;101295;-77
2024/01/26 03:23:46;;;;;;;19.45;5.00;;;;;;;8.09;61.49;101060.47;6222112;22;97258;-76
2024/01/26 03:26:12;;;;;;;16.40;4.43;;;;;;;8.04;61.83;101056.19;6247619;22;96757;-77
2024/01/26 03:28:37;;;;;;;18.15;4.78;;;;;;;8.14;61.90;101052.56;6246182;22;97348;-77
2024/01/26 03:31:03;;;;;;;18.85;3.90;;;;;;;8.15;61.44;101052.56;6195377;22;99279;-77
2024/01/26 03:33:28;;;;;;;14.95;3.70;;;;;;;8.01;61.57;101030.94;6247653;22;96949;-76
2024/01/26 03:35:54;;;;;;;16.92;3.80;;;;;;;8.07;61.36;101057.00;6195142;22;96892;-76
2024/01/26 03:38:19;;;;;;;17.80;4.07;;;;;;;8.04;61.75;101058.81;6221250;22;101277;-77
2024/01/26 03:40:45;;;;;;;16.15;3.47;;;;;;;7.93;61.23;101038.84;6246731;22;97973;-76
2024/01/26 03:43:10;;;;;;;17.13;3.95;;;;;;;8.08;61.24;101056.13;6247783;22;96728;-76
2024/01/26 03:45:36;;;;;;;17.70;4.03;;;;;;;7.89;61.53;101036.31;6219318;22;97125;-76
2024/01/26 03:48:01;;;;;;;12.88;4.05;;;;;;;8.15;61.62;101070.00;6221120;22;99451;-77
2024/01/26 03:50:27;;;;;;;13.70;4.13;;;;;;;8.05;61.35;101061.38;6274487;22;97276;-79
2024/01/26 03:52:53;;;;;;;20.08;4.22;;;;;;;8.16;61.25;101072.59;6220877;22;96658;-77
2024/01/26 03:55:18;;;;;;;16.27;3.95;;;;;;;7.97;61.34;101050.16;6274712;22;97028;-77
2024/01/26 03:57:44;;;;;;;20.08;4.45;;;;;;;8.13;61.68;101079.59;6246347;22;97318;-77
2024/01/26 04:00:10;;;;;;;15.10;4.70;;;;;;;8.14;61.84;101084.84;6246379;22;101276;-76
2024/01/26 04:02:38;;;;;;;16.33;4.28;;;;;;;8.13;60.92;101064.78;6247046;22;97216;-76
2024/01/26 04:05:04;;;;;;;18.00;4.65;;;;;;;8.01;61.58;101059.69;6220148;22;96693;-77
2024/01/26 04:07:29;;;;;;;13.90;3.35;;;;;;;8.14;61.57;101082.22;6246509;22;97228;-76
2024/01/26 04:09:55;;;;;;;12.68;3.72;;;;;;;8.04;61.54;101070.13;6274631;22;97566;-76
2024/01/26 04:12:20;;;;;;;13.32;4.30;;;;;;;7.92;61.74;101042.38;6247818;22;96693;-77
2024/01/26 04:14:46;;;;;;;13.77;3.28;;;;;;;8.10;61.34;101063.94;6246785;22;96783;-77
2024/01/26 04:17:11;;;;;;;13.05;3.67;;;;;;;8.08;61.22;101070.94;6220771;22;97095;-76
2024/01/26 04:19:37;;;;;;;17.38;3.90;;;;;;;8.09;61.52;101072.69;6220903;22;97895;-79
2024/01/26 04:22:02;;;;;;;16.08;4.35;;;;;;;8.10;61.08;101077.88;6221733;22;97696;-78
2024/01/26 04:24:28;;;;;;;15.45;3.92;;;;;;;8.13;61.61;101080.47;6247058;22;96957;-77
2024/01/26 04:26:53;;;;;;;18.25;4.05;;;;;;;8.08;61.23;101068.31;6246972;22;97318;-78
2024/01/26 04:29:19;;;;;;;16.63;3.25;;;;;;;7.96;61.64;101064.09;6195369;22;100937;-77
2024/01/26 04:31:44;;;;;;;17.55;4.25;;;;;;;8.09;61.29;101083.16;6221053;22;97069;-77
2024/01/26 04:34:10;;;;;;;13.90;3.78;;;;;;;7.93;61.43;101048.47;6246855;22;97150;-77
2024/01/26 04:36:36;;;;;;;17.33;4.22;;;;;;;8.05;61.45;101069.22;6246471;22;97851;-76
2024/01/26 04:39:02;;;;;;;16.45;5.53;;;;;;;7.95;61.48;101054.53;6195585;22;100500;-76
2024/01/26 04:41:28;;;;;;;16.00;3.75;;;;;;;8.07;61.09;101079.69;6274185;22;96562;-77
2024/01/26 04:43:55;;;;;;;16.80;3.78;;;;;;;7.88;61.42;101051.13;6247103;22;96729;-76
2024/01/26 04:46:20;;;;;;;16.38;4.38;;;;;;;8.11;61.45;101081.38;6220584;22;97837;-76
2024/01/26 04:48:46;;;;;;;18.35;3.90;;;;;;;8.05;61.51;101079.69;6195514;22;100893;-80
2024/01/26 04:51:11;;;;;;;17.48;4.65;;;;;;;7.87;61.49;101056.38;6247000;22;97117;-76
2024/01/26 04:53:37;;;;;;;18.45;4.82;;;;;;;8.06;61.39;101078.81;6247238;22;96750;-76
2024/01/26 04:56:03;;;;;;;14.40;3.78;;;;;;;8.07;61.19;101074.44;6273968;22;97273;-78
2024/01/26 04:58:28;;;;;;;13.93;3.42;;;;;;;7.93;61.79;101045.84;6220755;22;99247;-77
2024/01/26 05:00:54;;;;;;;14.70;4.25;;;;;;;8.02;61.05;101066.66;6219933;22;96629;-76
2024/01/26 05:03:19;;;;;;;16.02;4.43;;;;;;;7.89;61.21;101045.03;6220784;22;96696;-77
2024/01/26 05:05:45;;;;;;;19.90;5.60;;;;;;;7.90;61.14;101056.34;6244123;22;99421;-77
2024/01/26 05:08:11;;;;;;;16.30;3.72;;;;;;;7.79;60.85;101034.69;6219193;22;100878;-78
2024/01/26 05:10:36;;;;;;;19.80;3.53;;;;;;;7.99;60.80;101076.28;6218501;22;97034;-76
2024/01/26 05:13:02;;;;;;;18.48;4.45;;;;;;;7.94;61.09;101071.97;6244766;22;97307;-76
2024/01/26 05:15:27;;;;;;;19.33;4.10;;;;;;;7.89;61.07;101065.94;6272266;22;98366;-76
2024/01/26 05:17:53;;;;;;;14.82;3.72;;;;;;;7.88;61.05;101076.38;6246095;22;97389;-77
2024/01/26 05:20:18;;;;;;;18.02;4.13;;;;;;;7.86;61.31;101072.94;6220091;22;97079;-77
2024/01/26 05:22:44;;;;;;;17.20;3.88;;;;;;;7.85;61.11;101074.72;6195259;22;97001;-77
2024/01/26 05:25:09;;;;;;;15.68;3.58;;;;;;;7.78;60.96;101074.78;6245863;22;97762;-77
2024/01/26 05:27:35;;;;;;;16.23;4.40;;;;;;;7.65;61.49;101060.94;6220663;22;101118;-76
2024/01/26 05:30:00;;;;;;;13.77;3.88;;;;;;;7.79;60.93;101081.72;6245443;22;96650;-76
2024/01/26 05:32:26;;;;;;;18.25;3.95;;;;;;;7.85;61.56;101084.28;6246850;22;96824;-76
2024/01/26 05:34:51;;;;;;;17.35;4.45;;;;;;;7.63;61.09;101049.66;6193145;22;101547;-76
2024/01/26 05:37:17;;;;;;;13.57;3.80;;;;;;;7.77;61.45;101079.16;6194020;22;101424;-77
2024/01/26 05:39:43;;;;;;;15.88;4.28;;;;;;;7.74;61.56;101070.44;6220553;22;97139;-78
2024/01/26 05:42:08;;;;;;;17.75;5.00;;;;;;;7.74;61.71;101073.06;6220298;22;96709;-77
2024/01/26 05:44:33;;;;;;;23.23;5.65;;;;;;;7.69;61.22;101073.13;6220082;22;97495;-76
2024/01/26 05:46:59;;;;;;;22.40;4.85;;;;;;;7.79;61.51;101076.50;6220670;22;97332;-77
2024/01/26 05:49:25;;;;;;;17.52;5.00;;;;;;;7.76;61.58;101076.53;6220157;22;96843;-76
2024/01/26 05:51:51;;;;;;;21.23;5.57;;;;;;;7.69;61.36;101076.59;6246027;22;96758;-76
2024/01/26 05:54:17;;;;;;;16.80;5.57;;;;;;;7.71;61.41;101069.63;6245163;22;97369;-77
2024/01/26 05:56:42;;;;;;;20.88;5.90;;;;;;;7.74;61.50;101060.88;6245990;22;97348;-76
2024/01/26 05:59:08;;;;;;;17.58;5.82;;;;;;;7.78;61.50;101066.94;6218958;22;97088;-77
2024/01/26 06:01:34;;;;;;;24.17;5.97;;;;;;;7.71;60.84;101053.94;6220629;22;96753;-77
2024/01/26 06:04:00;;;;;;;19.55;5.57;;;;;;;7.65;61.07;101045.28;6194116;22;101753;-77
2024/01/26 06:06:26;;;;;;;19.55;4.95;;;;;;;7.58;60.99;101054.06;6245422;22;97376;-76
2024/01/26 06:08:51;;;;;;;19.45;5.47;;;;;;;7.63;61.17;101081.88;6245958;22;96669;-76
2024/01/26 06:11:18;;;;;;;26.02;6.10;;;;;;;7.66;61.03;101075.78;6195131;22;96836;-76
2024/01/26 06:13:44;;;;;;;19.05;5.32;;;;;;;7.46;60.58;101058.53;6220366;22;97816;-76
2024/01/26 06:16:14;;;;;;;18.90;5.75;;;;;;;7.52;61.22;101067.19;6245036;22;97290;-77
2024/01/26 06:18:40;;;;;;;20.17;6.40;;;;;;;7.46;61.21;101063.75;6220323;22;96661;-77
2024/01/26 06:21:05;;;;;;;14.18;5.97;;;;;;;7.53;60.99;101068.91;6247053;22;97017;-77
2024/01/26 06:23:31;;;;;;;18.33;6.07;;;;;;;7.42;61.08;101043.78;6221509;22;99475;-75
2024/01/26 06:25:56;;;;;;;22.45;6.78;;;;;;;7.56;60.87;101068.88;6247011;22;101056;-77
2024/01/26 06:28:22;;;;;;;27.58;8.20;;;;;;;7.29;61.02;101051.72;6222000;22;96675;-77
2024/01/26 06:30:48;;;;;;;21.90;5.65;;;;;;;7.24;61.13;101039.59;6221410;22;96876;-77
2024/01/26 06:33:13;;;;;;;19.50;6.82;;;;;;;7.41;61.29;101052.47;6221619;22;97417;-77
2024/01/26 06:35:39;;;;;;;21.88;6.57;;;;;;;7.44;61.04;101056.81;6246338;22;97347;-77
2024/01/26 06:38:04;;;;;;;17.08;5.80;;;;;;;7.34;60.93;101058.66;6221918;22;97064;-77
2024/01/26 06:40:30;;;;;;;19.75;7.55;;;;;;;7.29;60.97;101062.19;6221667;22;96664;-75
2024/01/26 06:42:55;;;;;;;22.13;7.32;;;;;;;7.28;61.31;101074.38;6220870;22;100752;-75
2024/01/26 06:45:21;;;;;;;17.10;6.20;;;;;;;7.24;61.59;101059.59;6195579;22;101064;-75
2024/01/26 06:47:47;;;;;;;25.73;6.53;;;;;;;7.20;61.18;101070.97;6196202;22;97066;-75
2024/01/26 06:50:12;;;;;;;19.48;7.10;;;;;;;7.22;61.25;101071.81;6247077;22;96681;-75
2024/01/26 06:52:38;;;;;;;25.05;6.53;;;;;;;7.26;60.84;101066.53;6275422;22;98127;-75
2024/01/26 06:55:03;;;;;;;25.10;6.25;;;;;;;7.19;60.71;101059.66;6221048;22;100441;-75
2024/01/26 06:57:29;;;;;;;23.40;5.80;;;;;;;7.21;60.66;101064.84;6247592;22;96711;-75
2024/01/26 06:59:54;;;;;;;21.17;6.15;;;;;;;7.22;60.71;101058.75;6275361;22;96669;-75
2024/01/26 07:02:20;;;;;;;22.80;6.60;;;;;;;7.24;60.93;101063.09;6275094;22;97543;-75
2024/01/26 07:04:45;;;;;;;20.33;7.55;;;;;;;7.21;60.59;101054.41;6220141;22;97160;-76
2024/01/26 07:07:11;;;;;;;21.10;7.93;;;;;;;7.30;60.62;101051.72;6246674;22;96721;-76
2024/01/26 07:09:36;;;;;;;24.48;7.85;;;;;;;7.28;60.34;101050.00;6247087;22;96658;-76
2024/01/26 07:12:03;;;;;;;20.70;8.40;;;;;;;7.30;60.60;101061.28;6221478;22;101096;-76
2024/01/26 07:14:28;;;;;;;28.13;9.13;;;;;;;7.36;60.69;101056.00;6274550;22;97718;-79
2024/01/26 07:16:54;;;;;;;20.73;8.57;;;;;;;7.30;60.69;101046.50;6247413;22;96608;-76
2024/01/26 07:19:19;;;;;;;24.95;8.15;;;;;;;7.28;60.83;101063.06;6247568;22;96706;-76
2024/01/26 07:21:45;;;;;;;21.98;8.60;;;;;;;7.16;61.14;101045.75;6246834;22;97467;-76
2024/01/26 07:24:10;;;;;;;28.33;9.75;;;;;;;7.32;61.19;101069.97;6221504;22;100900;-76
2024/01/26 07:26:37;;;;;;;31.00;9.18;;;;;;;7.42;61.04;101062.06;6221096;22;97102;-76
2024/01/26 07:29:03;;;;;;;30.48;8.70;;;;;;;7.47;60.85;101049.81;6221921;22;96812;-76
2024/01/26 07:31:28;;;;;;;29.98;9.65;;;;;;;7.67;60.58;101053.97;6245378;22;97381;-78
2024/01/26 07:33:54;;;;;;;29.40;8.73;;;;;;;7.85;59.74;101034.59;6246468;22;97553;-77
2024/01/26 07:36:20;;;;;;;24.58;8.23;;;;;;;8.13;59.78;101070.00;6245985;22;96917;-76
2024/01/26 07:38:45;;;;;;;27.00;9.32;;;;;;;8.36;59.02;101055.78;6246256;22;96674;-77
2024/01/26 07:41:11;;;;;;;23.65;8.57;;;;;;;8.47;58.27;101047.81;6221459;22;98484;-76
2024/01/26 07:43:36;;;;;;;34.33;9.65;;;;;;;8.66;58.11;101051.88;6246415;22;97494;-77
2024/01/26 07:46:02;;;;;;;31.00;8.65;;;;;;;8.97;57.50;101052.31;6221947;22;97048;-76
2024/01/26 07:48:28;;;;;;;24.38;9.25;;;;;;;9.08;57.46;101033.81;6247648;22;96782;-77
2024/01/26 07:50:53;;;;;;;29.58;8.73;;;;;;;9.36;56.90;101043.81;6195764;22;100732;-78
2024/01/26 07:53:19;;;;;;;28.80;8.80;;;;;;;9.64;55.83;101029.31;6246707;22;97912;-77
2024/01/26 07:55:44;;;;;;;25.10;8.50;;;;;;;9.74;55.74;101038.75;6221106;22;96632;-77
2024/01/26 07:58:10;;;;;;;22.25;7.35;;;;;;;9.99;55.31;101033.00;6221039;22;96978;-77
2024/01/26 08:00:35;;;;;;;25.23;8.50;;;;;;;10.24;54.71;101035.09;6220906;22;101245;-77
2024/01/26 08:03:01;;;;;;;33.90;9.45;;;;;;;10.51;54.26;101034.53;6220407;22;101578;-76
2024/01/26 08:05:26;;;;;;;25.92;7.80;;;;;;;10.74;53.12;101034.03;6220563;22;96917;-77
2024/01/26 08:07:52;;;;;;;21.52;7.43;;;;;;;11.00;52.50;101027.28;6220878;22;96891;-77
2024/01/26 08:10:17;;;;;;;26.20;8.38;;;;;;;11.24;51.72;101029.28;6220602;22;101385;-77
2024/01/26 08:12:45;;;;;;;24.17;8.60;;;;;;;11.37;51.36;101024.56;6246940;22;97322;-77
2024/01/26 08:15:11;;;;;;;29.02;11.38;;;;;;;11.63;51.19;101009.88;6221866;22;96722;-77
2024/01/26 08:17:37;;;;;;;32.63;10.88;;;;;;;12.16;49.34;101021.53;6246813;22;96759;-77
2024/01/26 08:20:03;;;;;;;26.92;9.75;;;;;;;12.49;48.94;101017.94;6246183;22;97746;-76
2024/01/26 08:22:30;;;;;;;32.30;9.30;;;;;;;12.74;48.37;101026.81;6220440;22;101407;-78
2024/01/26 08:24:58;;;;;;;29.45;10.20;;;;;;;12.93;48.24;101023.56;6221113;22;97106;-76
2024/01/26 08:27:25;;;;;;;20.80;7.53;;;;;;;13.02;47.47;101018.00;6247266;22;96763;-78
2024/01/26 08:29:51;;;;;;;24.95;8.10;;;;;;;13.01;47.43;101030.31;6245912;22;97986;-77
2024/01/26 08:32:16;;;;;;;21.52;6.95;;;;;;;13.06;47.19;101025.75;6246272;22;97252;-77
2024/01/26 08:34:42;;;;;;;25.80;7.05;;;;;;;13.22;47.31;101012.06;6194403;22;96691;-78
2024/01/26 08:37:07;;;;;;;24.98;6.60;;;;;;;13.87;45.87;101002.75;6220753;22;96997;-77
2024/01/26 08:39:34;;;;;;;21.80;7.05;;;;;;;13.77;45.93;101004.88;6219968;22;100822;-74
2024/01/26 08:42:00;;;;;;;23.33;6.50;;;;;;;13.75;46.25;101001.41;6246510;22;97359;-74
2024/01/26 08:44:25;;;;;;;24.08;7.03;;;;;;;14.02;45.54;100981.94;6244899;22;96619;-74
2024/01/26 08:46:51;;;;;;;23.23;6.25;;;;;;;14.15;45.51;100999.94;6247023;22;96755;-77
2024/01/26 08:49:16;;;;;;;17.67;5.00;;;;;;;13.68;45.56;100992.00;6245137;22;97545;-74
2024/01/26 08:51:42;;;;;;;24.05;6.05;;;;;;;13.40;46.18;101000.03;6219984;22;101415;-74
2024/01/26 08:54:07;;;;;;;20.40;5.70;;;;;;;13.59;45.78;100998.47;6194759;22;96616;-75
2024/01/26 08:56:34;;;;;;;23.95;6.47;;;;;;;13.65;45.77;100986.84;6195649;22;97136;-74
2024/01/26 08:58:59;;;;;;;19.92;5.38;;;;;;;14.10;44.74;101013.31;6273490;22;97924;-76
2024/01/26 09:01:25;;;;;;;22.23;5.45;;;;;;;14.01;44.95;101005.72;6247000;22;97493;-74
2024/01/26 09:03:51;;;;;;;21.38;5.65;;;;;;;14.10;45.06;101002.75;6219431;22;96725;-75
2024/01/26 09:06:16;;;;;;;18.25;5.45;;;;;;;14.35;44.67;100996.53;6220648;22;96823;-75
2024/01/26 09:08:42;;;;;;;26.52;6.00;;;;;;;14.96;43.36;101009.97;6193614;22;99893;-76
2024/01/26 09:11:07;;;;;;;20.58;6.35;;;;;;;15.17;42.82;100989.69;6245763;22;97231;-75
2024/01/26 09:13:33;;;;;;;18.52;5.50;;;;;;;14.67;43.47;101009.34;6245471;22;97360;-75
2024/01/26 09:15:58;;;;;;;22.38;5.97;;;;;;;14.56;44.20;101005.44;6246830;22;96718;-75
2024/01/26 09:18:24;;;;;;;22.08;5.22;;;;;;;14.70;43.96;100993.38;6194888;22;101337;-78
2024/01/26 09:20:50;;;;;;;22.73;5.97;;;;;;;14.62;43.42;100987.53;6220193;22;100002;-75
2024/01/26 09:23:16;;;;;;;30.23;8.93;;;;;;;14.58;43.50;100993.88;6246286;22;97119;-75
2024/01/26 09:25:42;;;;;;;17.77;5.13;;;;;;;14.46;43.52;100991.69;6221309;22;96939;-75
2024/01/26 09:28:08;;;;;;;21.23;5.40;;;;;;;14.42;43.59;100987.44;6245703;22;97347;-75
2024/01/26 09:30:33;;;;;;;18.77;5.40;;;;;;;14.27;43.66;100970.41;6245826;22;101308;-75
2024/01/26 09:32:59;;;;;;;19.88;5.90;;;;;;;14.31;42.95;100966.75;6272819;22;96961;-76
2024/01/26 09:35:25;;;;;;;17.60;5.25;;;;;;;14.42;43.06;100979.50;6245704;22;97172;-76
2024/01/26 09:37:50;;;;;;;21.52;5.88;;;;;;;14.43;42.87;100975.97;6219812;22;97477;-75
2024/01/26 09:40:16;;;;;;;28.65;9.63;;;;;;;14.63;42.63;100967.25;6194610;22;100791;-75
2024/01/26 09:42:42;;;;;;;17.38;6.05;;;;;;;14.49;42.34;100960.72;6220012;22;96746;-75
2024/01/26 09:45:09;;;;;;;25.08;8.70;;;;;;;14.19;42.98;100961.94;6245684;22;97180;-75
2024/01/26 09:47:35;;;;;;;17.70;5.72;;;;;;;13.95;43.29;100969.88;6245639;22;97924;-77
2024/01/26 09:50:05;;;;;;;19.48;5.97;;;;;;;13.50;43.87;100965.38;6245889;22;98913;-75
2024/01/26 09:52:31;;;;;;;20.65;5.95;;;;;;;13.14;44.70;100941.97;6217506;22;97064;-76
2024/01/26 09:54:58;;;;;;;34.20;13.52;;;;;;;13.19;44.34;100952.38;6217997;22;96890;-75
2024/01/26 09:57:24;;;;;;;18.65;8.07;;;;;;;13.08;44.91;100950.09;6218427;22;99901;-78
2024/01/26 09:59:53;;;;;;;27.58;7.43;;;;;;;12.98;45.44;100939.97;6218976;22;100377;-77
2024/01/26 10:02:21;;;;;;;16.92;6.07;;;;;;;12.82;45.11;100939.59;6246248;22;97335;-75
2024/01/26 10:04:47;;;;;;;19.40;5.93;;;;;;;12.75;45.93;100928.41;6271762;22;97348;-75
2024/01/26 10:07:12;;;;;;;21.42;6.25;;;;;;;12.69;45.80;100907.53;6238041;22;98047;-74
2024/01/26 10:09:38;;;;;;;24.77;7.68;;;;;;;12.66;45.67;100919.03;6214415;22;101287;-74
2024/01/26 10:12:05;;;;;;;20.92;8.60;;;;;;;12.56;45.60;100914.13;6238798;22;97184;-72
2024/01/26 10:14:30;;;;;;;23.65;9.52;;;;;;;12.35;46.68;100918.31;6240097;22;97083;-74
2024/01/26 10:17:00;;;;;;;52.10;18.02;;;;;;;11.97;47.31;100917.72;6242230;22;100856;-74
2024/01/26 10:19:30;;;;;;;22.25;7.88;;;;;;;11.58;48.51;100902.19;6215507;22;97301;-75
2024/01/26 10:21:56;;;;;;;29.65;9.18;;;;;;;11.19;48.97;100884.00;6242034;22;96610;-76
2024/01/26 10:24:23;;;;;;;38.00;12.57;;;;;;;11.06;49.24;100882.63;6216146;22;96761;-75
2024/01/26 10:26:54;;;;;;;40.00;12.32;;;;;;;11.09;49.22;100877.28;6242438;22;97416;-75
2024/01/26 10:29:22;;;;;;;18.02;5.78;;;;;;;11.12;49.28;100887.72;6216685;22;97272;-75
2024/01/26 10:31:50;;;;;;;18.70;5.28;;;;;;;11.03;48.98;100880.94;6242675;22;96709;-74
2024/01/26 10:34:16;;;;;;;27.77;8.38;;;;;;;10.70;50.07;100843.28;6216620;22;96842;-75
2024/01/26 10:36:44;;;;;;;37.75;11.43;;;;;;;10.57;50.36;100863.75;6217013;22;97885;-72
2024/01/26 10:39:16;;;;;;;27.50;9.75;;;;;;;10.47;50.42;100864.03;6242912;22;97385;-74
2024/01/26 10:41:47;;;;;;;26.52;8.70;;;;;;;10.37;50.02;100840.63;6243467;22;96723;-74
2024/01/26 10:44:15;;;;;;;19.40;5.30;;;;;;;10.32;50.11;100849.53;6217199;22;96661;-74
2024/01/26 10:46:41;;;;;;;21.17;5.60;;;;;;;10.23;50.51;100836.59;6241877;22;97411;-74
2024/01/26 10:49:07;;;;;;;17.17;5.38;;;;;;;10.05;50.34;100830.03;6237329;22;97393;-74
2024/01/26 10:51:35;;;;;;;19.75;6.22;;;;;;;9.90;50.74;100842.59;6241008;22;96747;-73
2024/01/26 10:54:04;;;;;;;32.13;9.38;;;;;;;10.05;50.78;100840.53;6240420;22;96841;-75
2024/01/26 10:56:30;;;;;;;22.90;7.90;;;;;;;9.97;51.19;100810.09;6241193;22;98024;-77
2024/01/26 10:58:57;;;;;;;21.25;7.38;;;;;;;10.50;50.34;100843.84;6242596;22;97243;-73
2024/01/26 11:01:23;;;;;;;26.48;7.15;;;;;;;10.42;49.66;100827.41;6243677;22;96583;-74
2024/01/26 11:03:48;;;;;;;31.25;8.80;;;;;;;10.33;49.31;100817.16;6242833;22;97049;-78
2024/01/26 11:06:15;;;;;;;11.65;3.50;;;;;;;10.12;48.99;100822.00;6189332;22;101056;-73
2024/01/26 11:08:40;;;;;;;31.65;9.68;;;;;;;9.90;49.90;100816.38;6237832;22;97208;-74
2024/01/26 11:11:06;;;;;;;22.98;6.93;;;;;;;9.74;49.43;100787.06;6239100;22;97042;-73
2024/01/26 11:13:36;;;;;;;21.70;6.93;;;;;;;9.78;50.27;100798.31;6241272;22;97119;-73
2024/01/26 11:16:07;;;;;;;16.67;4.75;;;;;;;9.65;49.74;100789.84;6242641;22;97340;-73